createdAt,value
2019-05-22T00:00:31.641Z,2.42
2019-05-22T00:01:41.453Z,2.45
2019-05-22T00:02:46.696Z,2.52
2019-05-22T00:03:55.206Z,2.60
2019-05-22T00:05:17.506Z,2.50
2019-05-22T00:06:29.036Z,2.47
2019-05-22T00:07:35.186Z,2.70
2019-05-22T00:08:40.526Z,2.87
2019-05-22T00:09:47.191Z,2.70
2019-05-22T00:10:53.855Z,2.62
2019-05-22T00:12:00.551Z,2.42
2019-05-22T00:13:06.904Z,2.72
2019-05-22T00:14:11.508Z,2.52
2019-05-22T00:15:18.829Z,3.10
2019-05-22T00:16:30.287Z,2.65
2019-05-22T00:17:35.029Z,2.50
2019-05-22T00:18:40.504Z,2.72
2019-05-22T00:19:48.284Z,2.85
2019-05-22T00:20:54.505Z,2.60
2019-05-22T00:22:00.993Z,2.92
2019-05-22T00:23:11.161Z,3.15
2019-05-22T00:24:16.754Z,2.85
2019-05-22T00:25:23.988Z,3.00
2019-05-22T00:26:28.998Z,2.80
2019-05-22T00:27:34.696Z,3.08
2019-05-22T00:28:38.868Z,3.15
2019-05-22T00:29:44.991Z,3.02
2019-05-22T00:30:49.393Z,2.98
2019-05-22T00:31:55.332Z,3.12
2019-05-22T00:33:00.464Z,2.95
2019-05-22T00:34:05.299Z,2.85
2019-05-22T00:35:09.995Z,2.95
2019-05-22T00:36:14.987Z,2.95
2019-05-22T00:37:20.851Z,2.98
2019-05-22T00:38:25.864Z,3.12
2019-05-22T00:39:30.322Z,2.90
2019-05-22T00:40:38.401Z,2.98
2019-05-22T00:41:42.802Z,2.98
2019-05-22T00:43:02.879Z,3.15
2019-05-22T00:43:57.238Z,3.20
2019-05-22T00:45:03.095Z,2.98
2019-05-22T00:46:09.229Z,3.37
2019-05-22T00:47:14.884Z,3.00
2019-05-22T00:48:22.084Z,3.08
2019-05-22T00:49:27.904Z,2.83
2019-05-22T00:50:40.645Z,2.87
2019-05-22T00:51:47.143Z,3.02
2019-05-22T00:53:11.139Z,2.80
2019-05-22T00:54:17.083Z,2.58
2019-05-22T00:55:32.384Z,3.10
2019-05-22T00:56:52.154Z,3.02
2019-05-22T00:58:06.884Z,3.00
2019-05-22T00:59:14.527Z,2.90
2019-05-22T01:00:22.178Z,2.62
2019-05-22T01:01:32.914Z,3.02
2019-05-22T01:02:39.179Z,3.02
2019-05-22T01:03:46.551Z,3.15
2019-05-22T01:04:52.113Z,2.33
2019-05-22T01:05:57.944Z,2.67
2019-05-22T01:07:05.286Z,2.87
2019-05-22T01:08:11.073Z,3.10
2019-05-22T01:09:16.777Z,3.40
2019-05-22T01:10:23.463Z,2.92
2019-05-22T01:11:29.094Z,3.05
2019-05-22T01:12:36.501Z,2.95
2019-05-22T01:13:42.251Z,2.90
2019-05-22T01:14:48.414Z,2.60
2019-05-22T01:15:52.513Z,3.00
2019-05-22T01:16:57.288Z,2.80
2019-05-22T01:18:06.061Z,3.22
2019-05-22T01:19:11.480Z,2.80
2019-05-22T01:20:16.817Z,2.80
2019-05-22T01:21:22.991Z,2.50
2019-05-22T01:22:30.475Z,2.85
2019-05-22T01:23:37.241Z,2.83
2019-05-22T01:24:41.881Z,2.90
2019-05-22T01:25:48.608Z,3.17
2019-05-22T01:26:55.017Z,2.95
2019-05-22T01:28:01.014Z,2.90
2019-05-22T01:29:06.051Z,2.90
2019-05-22T01:30:12.084Z,2.90
2019-05-22T01:31:37.802Z,2.87
2019-05-22T01:32:52.566Z,2.87
2019-05-22T01:34:03.942Z,2.83
2019-05-22T01:35:13.226Z,2.65
2019-05-22T01:36:20.576Z,2.80
2019-05-22T01:37:28.066Z,3.00
2019-05-22T01:38:33.657Z,3.08
2019-05-22T01:39:45.238Z,3.10
2019-05-22T01:40:52.924Z,2.77
2019-05-22T01:41:59.153Z,3.25
2019-05-22T01:43:03.682Z,3.37
2019-05-22T01:44:09.481Z,3.15
2019-05-22T01:45:15.632Z,3.10
2019-05-22T01:46:21.775Z,2.85
2019-05-22T01:47:48.688Z,3.00
2019-05-22T01:48:57.453Z,3.05
2019-05-22T01:50:05.996Z,3.02
2019-05-22T01:51:11.875Z,3.15
2019-05-22T01:52:17.465Z,3.15
2019-05-22T01:53:24.067Z,3.05
2019-05-22T01:54:28.553Z,2.80
2019-05-22T01:55:34.875Z,2.72
2019-05-22T01:56:39.673Z,3.27
2019-05-22T01:57:46.002Z,3.15
2019-05-22T01:58:50.799Z,3.25
2019-05-22T01:59:59.609Z,3.40
2019-05-22T02:01:06.745Z,3.02
2019-05-22T02:02:14.399Z,3.42
2019-05-22T02:03:20.140Z,3.10
2019-05-22T02:04:27.569Z,3.10
2019-05-22T02:05:33.572Z,2.90
2019-05-22T02:06:38.252Z,2.90
2019-05-22T02:07:42.703Z,3.30
2019-05-22T02:08:57.430Z,3.00
2019-05-22T02:10:03.889Z,2.95
2019-05-22T02:11:15.311Z,3.12
2019-05-22T02:12:36.380Z,3.00
2019-05-22T02:13:44.706Z,3.00
2019-05-22T02:14:50.472Z,2.90
2019-05-22T02:15:56.274Z,2.95
2019-05-22T02:17:01.347Z,2.77
2019-05-22T02:18:10.169Z,3.17
2019-05-22T02:19:14.383Z,3.72
2019-05-22T02:20:20.264Z,2.90
2019-05-22T02:21:26.873Z,3.20
2019-05-22T02:22:32.831Z,2.90
2019-05-22T02:23:37.708Z,2.85
2019-05-22T02:24:42.588Z,2.72
2019-05-22T02:25:47.231Z,2.83
2019-05-22T02:26:53.275Z,2.77
2019-05-22T02:28:00.727Z,2.70
2019-05-22T02:29:09.388Z,2.62
2019-05-22T02:30:14.515Z,3.02
2019-05-22T02:31:26.143Z,2.60
2019-05-22T02:32:31.662Z,3.10
2019-05-22T02:33:39.367Z,2.92
2019-05-22T02:34:44.178Z,2.70
2019-05-22T02:35:50.107Z,3.17
2019-05-22T02:36:54.207Z,2.90
2019-05-22T02:37:59.462Z,2.87
2019-05-22T02:39:08.306Z,2.72
2019-05-22T02:40:20.123Z,3.08
2019-05-22T02:41:26.112Z,3.08
2019-05-22T02:42:31.498Z,2.72
2019-05-22T02:43:36.016Z,2.90
2019-05-22T02:44:42.516Z,2.65
2019-05-22T02:45:47.094Z,2.80
2019-05-22T02:46:53.817Z,2.67
2019-05-22T02:47:58.691Z,3.15
2019-05-22T02:49:04.717Z,2.87
2019-05-22T02:50:08.931Z,2.67
2019-05-22T02:51:15.088Z,2.98
2019-05-22T02:52:20.325Z,3.00
2019-05-22T02:53:26.118Z,2.90
2019-05-22T02:54:32.699Z,3.05
2019-05-22T02:55:39.958Z,2.80
2019-05-22T02:56:44.186Z,2.72
2019-05-22T02:57:52.381Z,2.90
2019-05-22T02:58:56.780Z,2.65
2019-05-22T03:00:02.262Z,2.67
2019-05-22T03:01:07.001Z,2.67
2019-05-22T03:02:14.691Z,2.80
2019-05-22T03:03:20.430Z,2.75
2019-05-22T03:04:29.137Z,2.67
2019-05-22T03:05:34.042Z,2.67
2019-05-22T03:06:39.668Z,2.60
2019-05-22T03:07:46.627Z,2.45
2019-05-22T03:09:01.587Z,3.02
2019-05-22T03:10:09.654Z,2.55
2019-05-22T03:11:16.585Z,2.27
2019-05-22T03:12:22.526Z,2.22
2019-05-22T03:14:00.293Z,2.37
2019-05-22T03:15:08.827Z,2.70
2019-05-22T03:16:14.683Z,2.27
2019-05-22T03:17:31.745Z,2.92
2019-05-22T03:18:36.415Z,2.42
2019-05-22T03:19:46.473Z,2.25
2019-05-22T03:20:51.378Z,2.60
2019-05-22T03:21:57.198Z,2.45
2019-05-22T03:23:17.150Z,2.37
2019-05-22T03:24:21.875Z,2.42
2019-05-22T03:25:27.715Z,2.42
2019-05-22T03:26:40.407Z,2.30
2019-05-22T03:27:48.458Z,2.33
2019-05-22T03:28:53.460Z,2.25
2019-05-22T03:29:58.806Z,2.15
2019-05-22T03:31:05.174Z,2.45
2019-05-22T03:32:10.650Z,2.40
2019-05-22T03:33:16.512Z,2.20
2019-05-22T03:34:22.320Z,2.20
2019-05-22T03:35:28.111Z,2.10
2019-05-22T03:36:32.991Z,2.60
2019-05-22T03:37:37.849Z,2.15
2019-05-22T03:38:43.030Z,2.45
2019-05-22T03:39:48.630Z,2.37
2019-05-22T03:40:54.179Z,2.27
2019-05-22T03:41:59.189Z,2.10
2019-05-22T03:43:16.228Z,2.47
2019-05-22T03:44:22.483Z,2.08
2019-05-22T03:45:28.740Z,2.45
2019-05-22T03:46:37.000Z,2.17
2019-05-22T03:47:42.400Z,2.30
2019-05-22T03:48:46.954Z,2.40
2019-05-22T03:49:51.738Z,2.17
2019-05-22T03:51:11.189Z,2.47
2019-05-22T03:52:17.109Z,2.30
2019-05-22T03:53:23.202Z,2.62
2019-05-22T03:54:27.877Z,2.33
2019-05-22T03:55:32.643Z,2.20
2019-05-22T03:56:41.642Z,2.27
2019-05-22T03:57:45.875Z,2.20
2019-05-22T03:58:51.497Z,2.40
2019-05-22T03:59:55.830Z,2.30
2019-05-22T04:01:03.585Z,2.20
2019-05-22T04:02:10.131Z,2.30
2019-05-22T04:03:16.588Z,2.20
2019-05-22T04:04:35.468Z,2.30
2019-05-22T04:05:41.114Z,2.05
2019-05-22T04:06:45.214Z,2.27
2019-05-22T04:07:51.732Z,2.15
2019-05-22T04:08:57.709Z,2.08
2019-05-22T04:10:04.477Z,2.20
2019-05-22T04:11:13.133Z,2.08
2019-05-22T04:12:18.355Z,2.20
2019-05-22T04:13:22.509Z,2.02
2019-05-22T04:14:35.507Z,2.20
2019-05-22T04:15:40.124Z,2.30
2019-05-22T04:16:45.202Z,2.30
2019-05-22T04:17:49.340Z,2.08
2019-05-22T04:18:54.814Z,2.08
2019-05-22T04:20:01.170Z,2.10
2019-05-22T04:21:06.600Z,1.82
2019-05-22T04:22:10.821Z,2.20
2019-05-22T04:23:15.575Z,2.00
2019-05-22T04:24:20.597Z,2.10
2019-05-22T04:25:25.745Z,2.10
2019-05-22T04:26:30.534Z,1.95
2019-05-22T04:27:37.585Z,2.40
2019-05-22T04:28:51.036Z,1.80
2019-05-22T04:29:57.524Z,2.30
2019-05-22T04:31:02.441Z,1.80
2019-05-22T04:32:17.541Z,2.02
2019-05-22T04:33:21.741Z,2.33
2019-05-22T04:34:27.903Z,2.12
2019-05-22T04:35:32.453Z,2.17
2019-05-22T04:36:37.627Z,2.40
2019-05-22T04:37:43.091Z,2.10
2019-05-22T04:38:47.717Z,1.90
2019-05-22T04:39:55.926Z,1.90
2019-05-22T04:41:02.784Z,1.77
2019-05-22T04:42:10.681Z,1.90
2019-05-22T04:43:20.252Z,2.47
2019-05-22T04:44:22.386Z,1.85
2019-05-22T04:45:29.033Z,2.00
2019-05-22T04:46:33.498Z,2.17
2019-05-22T04:47:39.941Z,2.10
2019-05-22T04:48:46.471Z,2.20
2019-05-22T04:50:06.243Z,2.10
2019-05-22T04:51:01.256Z,1.98
2019-05-22T04:52:06.618Z,1.92
2019-05-22T04:53:10.869Z,1.95
2019-05-22T04:54:15.746Z,1.90
2019-05-22T04:55:20.059Z,2.00
2019-05-22T04:56:31.650Z,2.00
2019-05-22T04:57:35.705Z,1.90
2019-05-22T04:58:41.003Z,1.90
2019-05-22T04:59:45.341Z,2.50
2019-05-22T05:00:50.102Z,2.00
2019-05-22T05:01:54.820Z,1.90
2019-05-22T05:03:02.709Z,2.15
2019-05-22T05:04:07.031Z,2.05
2019-05-22T05:05:12.357Z,2.37
2019-05-22T05:06:18.085Z,1.95
2019-05-22T05:07:23.217Z,2.00
2019-05-22T05:08:27.362Z,2.00
2019-05-22T05:09:32.129Z,1.92
2019-05-22T05:10:36.323Z,2.30
2019-05-22T05:11:41.193Z,2.00
2019-05-22T05:12:45.850Z,1.77
2019-05-22T05:13:50.478Z,2.12
2019-05-22T05:14:55.049Z,2.10
2019-05-22T05:15:59.861Z,2.10
2019-05-22T05:17:04.073Z,2.15
2019-05-22T05:18:09.234Z,2.08
2019-05-22T05:19:13.371Z,2.30
2019-05-22T05:20:22.551Z,1.80
2019-05-22T05:21:24.086Z,1.90
2019-05-22T05:22:48.988Z,2.10
2019-05-22T05:23:53.134Z,2.08
2019-05-22T05:24:57.787Z,2.17
2019-05-22T05:26:02.197Z,1.90
2019-05-22T05:27:08.499Z,1.82
2019-05-22T05:28:13.519Z,1.65
2019-05-22T05:29:30.020Z,2.40
2019-05-22T05:30:34.169Z,2.00
2019-05-22T05:31:39.029Z,1.90
2019-05-22T05:32:43.669Z,2.25
2019-05-22T05:34:06.323Z,2.17
2019-05-22T05:35:11.625Z,2.83
2019-05-22T05:36:16.374Z,2.25
2019-05-22T05:37:22.872Z,1.92
2019-05-22T05:38:36.666Z,2.20
2019-05-22T05:39:45.017Z,2.10
2019-05-22T05:40:50.568Z,1.98
2019-05-22T05:41:54.786Z,2.00
2019-05-22T05:43:00.315Z,2.05
2019-05-22T05:44:04.640Z,2.00
2019-05-22T05:45:13.606Z,1.80
2019-05-22T05:46:18.252Z,1.90
2019-05-22T05:47:23.945Z,2.20
2019-05-22T05:48:29.071Z,1.95
2019-05-22T05:49:33.815Z,1.90
2019-05-22T05:50:40.610Z,2.35
2019-05-22T05:51:47.112Z,2.00
2019-05-22T05:52:51.349Z,2.27
2019-05-22T05:54:00.145Z,2.30
2019-05-22T05:55:05.972Z,2.10
2019-05-22T05:56:15.351Z,2.17
2019-05-22T05:57:31.085Z,2.90
2019-05-22T05:58:36.705Z,2.20
2019-05-22T05:59:40.841Z,2.30
2019-05-22T06:00:48.897Z,2.30
2019-05-22T06:01:54.222Z,2.10
2019-05-22T06:03:30.945Z,2.30
2019-05-22T06:04:37.202Z,2.20
2019-05-22T06:05:41.971Z,2.10
2019-05-22T06:06:51.944Z,2.02
2019-05-22T06:07:57.214Z,2.00
2019-05-22T06:09:03.483Z,2.30
2019-05-22T06:10:26.081Z,2.33
2019-05-22T06:11:42.886Z,2.30
2019-05-22T06:12:49.286Z,2.12
2019-05-22T06:13:58.923Z,2.10
2019-05-22T06:15:04.069Z,2.10
2019-05-22T06:16:20.858Z,2.17
2019-05-22T06:18:49.884Z,2.10
2019-05-22T06:20:00.560Z,2.12
2019-05-22T06:21:06.123Z,2.15
2019-05-22T06:22:12.353Z,2.20
2019-05-22T06:23:27.352Z,2.15
2019-05-22T06:24:36.205Z,2.10
2019-05-22T06:25:40.682Z,2.02
2019-05-22T06:26:48.465Z,2.58
2019-05-22T06:27:53.044Z,2.20
2019-05-22T06:28:57.999Z,2.60
2019-05-22T06:30:08.725Z,2.20
2019-05-22T06:31:35.942Z,2.45
2019-05-22T06:33:13.268Z,2.50
2019-05-22T06:34:18.051Z,2.40
2019-05-22T06:35:22.417Z,2.37
2019-05-22T06:36:28.057Z,2.12
2019-05-22T06:37:41.482Z,2.33
2019-05-22T06:38:52.969Z,2.45
2019-05-22T06:39:59.040Z,2.15
2019-05-22T06:41:04.084Z,2.30
2019-05-22T06:42:08.609Z,2.35
2019-05-22T06:43:26.353Z,2.45
2019-05-22T06:44:33.328Z,2.30
2019-05-22T06:45:38.104Z,2.30
2019-05-22T06:46:47.268Z,2.12
2019-05-22T06:47:52.005Z,2.20
2019-05-22T06:48:59.429Z,2.70
2019-05-22T06:50:05.370Z,2.50
2019-05-22T06:51:19.177Z,2.87
2019-05-22T06:52:16.799Z,3.62
2019-05-22T06:53:23.558Z,3.30
2019-05-22T06:54:28.403Z,3.58
2019-05-22T06:55:34.115Z,3.17
2019-05-22T06:56:38.759Z,3.20
2019-05-22T06:57:42.979Z,2.60
2019-05-22T06:58:47.675Z,3.10
2019-05-22T07:00:11.256Z,2.80
2019-05-22T07:01:00.341Z,2.80
2019-05-22T07:02:05.885Z,2.67
2019-05-22T07:03:11.362Z,2.83
2019-05-22T07:04:16.536Z,2.47
2019-05-22T07:05:21.314Z,2.42
2019-05-22T07:06:25.542Z,2.30
2019-05-22T07:07:30.544Z,2.50
2019-05-22T07:08:34.955Z,2.30
2019-05-22T07:09:41.614Z,2.10
2019-05-22T07:10:45.750Z,2.65
2019-05-22T07:11:50.972Z,2.10
2019-05-22T07:12:55.260Z,2.15
2019-05-22T07:14:01.481Z,2.10
2019-05-22T07:15:10.274Z,2.50
2019-05-22T07:16:16.247Z,2.40
2019-05-22T07:17:23.598Z,2.72
2019-05-22T07:18:29.563Z,2.20
2019-05-22T07:19:34.003Z,2.30
2019-05-22T07:20:40.546Z,2.17
2019-05-22T07:21:44.844Z,1.82
2019-05-22T07:22:49.818Z,2.10
2019-05-22T07:23:54.031Z,2.10
2019-05-22T07:25:01.613Z,2.10
2019-05-22T07:26:06.123Z,1.90
2019-05-22T07:27:26.932Z,1.92
2019-05-22T07:28:32.332Z,2.12
2019-05-22T07:29:37.430Z,2.30
2019-05-22T07:30:41.960Z,2.12
2019-05-22T07:31:47.124Z,2.20
2019-05-22T07:32:51.274Z,2.37
2019-05-22T07:33:56.091Z,2.30
2019-05-22T07:35:00.318Z,2.10
2019-05-22T07:36:10.968Z,2.40
2019-05-22T07:37:13.810Z,1.80
2019-05-22T07:38:20.068Z,2.15
2019-05-22T07:39:24.211Z,2.12
2019-05-22T07:40:29.586Z,2.10
2019-05-22T07:41:36.952Z,2.17
2019-05-22T07:42:41.705Z,2.52
2019-05-22T07:43:45.740Z,2.35
2019-05-22T07:44:50.430Z,1.98
2019-05-22T07:45:57.119Z,2.15
2019-05-22T07:47:02.377Z,2.15
2019-05-22T07:48:07.939Z,2.12
2019-05-22T07:49:12.952Z,2.30
2019-05-22T07:50:19.239Z,2.30
2019-05-22T07:51:25.319Z,2.02
2019-05-22T07:52:29.526Z,2.10
2019-05-22T07:53:34.281Z,2.08
2019-05-22T07:54:40.578Z,2.12
2019-05-22T07:55:45.863Z,2.02
2019-05-22T07:56:49.906Z,1.95
2019-05-22T07:58:03.869Z,1.87
2019-05-22T07:59:08.280Z,1.60
2019-05-22T08:00:14.390Z,1.70
2019-05-22T08:01:20.293Z,1.60
2019-05-22T08:02:28.218Z,1.80
2019-05-22T08:03:33.069Z,1.60
2019-05-22T08:04:39.323Z,1.50
2019-05-22T08:05:46.528Z,1.67
2019-05-22T08:06:52.964Z,1.52
2019-05-22T08:07:57.414Z,1.60
2019-05-22T08:09:04.438Z,1.50
2019-05-22T08:10:13.491Z,1.98
2019-05-22T08:11:20.317Z,1.77
2019-05-22T08:12:24.649Z,1.90
2019-05-22T08:13:31.232Z,1.85
2019-05-22T08:14:35.249Z,2.10
2019-05-22T08:15:40.025Z,2.30
2019-05-22T08:16:44.750Z,1.80
2019-05-22T08:17:49.531Z,2.00
2019-05-22T08:18:53.670Z,1.62
2019-05-22T08:19:59.902Z,1.90
2019-05-22T08:21:04.511Z,1.77
2019-05-22T08:22:09.312Z,1.70
2019-05-22T08:23:14.084Z,1.72
2019-05-22T08:24:18.946Z,1.70
2019-05-22T08:25:23.240Z,1.87
2019-05-22T08:26:30.435Z,1.72
2019-05-22T08:27:35.515Z,1.80
2019-05-22T08:28:41.264Z,1.42
2019-05-22T08:29:46.068Z,1.77
2019-05-22T08:30:51.938Z,2.00
2019-05-22T08:32:00.410Z,1.65
2019-05-22T08:33:08.708Z,1.67
2019-05-22T08:34:14.127Z,1.67
2019-05-22T08:35:18.868Z,1.50
2019-05-22T08:36:24.673Z,1.32
2019-05-22T08:37:31.986Z,1.62
2019-05-22T08:38:36.786Z,1.57
2019-05-22T08:39:41.538Z,1.72
2019-05-22T08:40:47.243Z,1.98
2019-05-22T08:41:51.934Z,1.57
2019-05-22T08:42:56.955Z,1.50
2019-05-22T08:44:16.353Z,1.60
2019-05-22T08:45:09.038Z,1.57
2019-05-22T08:46:13.729Z,1.57
2019-05-22T08:47:18.577Z,1.37
2019-05-22T08:48:24.299Z,1.50
2019-05-22T08:49:29.968Z,1.42
2019-05-22T08:50:35.400Z,1.30
2019-05-22T08:51:39.695Z,1.50
2019-05-22T08:52:45.644Z,1.40
2019-05-22T08:53:51.315Z,1.50
2019-05-22T08:54:56.919Z,1.40
2019-05-22T08:56:01.559Z,1.67
2019-05-22T08:57:09.306Z,1.62
2019-05-22T08:58:15.582Z,1.47
2019-05-22T08:59:21.449Z,1.70
2019-05-22T09:00:27.486Z,1.40
2019-05-22T09:01:32.412Z,1.62
2019-05-22T09:02:36.685Z,1.40
2019-05-22T09:03:42.033Z,1.55
2019-05-22T09:04:47.734Z,1.52
2019-05-22T09:05:52.993Z,1.40
2019-05-22T09:06:57.245Z,1.50
2019-05-22T09:08:02.105Z,1.60
2019-05-22T09:09:07.521Z,1.50
2019-05-22T09:10:13.064Z,1.60
2019-05-22T09:11:20.058Z,1.37
2019-05-22T09:12:25.480Z,1.47
2019-05-22T09:13:30.068Z,1.45
2019-05-22T09:14:34.774Z,1.32
2019-05-22T09:15:40.871Z,1.35
2019-05-22T09:16:46.341Z,1.30
2019-05-22T09:17:50.515Z,1.35
2019-05-22T09:18:55.194Z,1.70
2019-05-22T09:19:59.887Z,1.30
2019-05-22T09:21:04.889Z,1.30
2019-05-22T09:22:09.841Z,1.45
2019-05-22T09:23:14.541Z,1.60
2019-05-22T09:24:20.017Z,1.50
2019-05-22T09:25:25.112Z,1.60
2019-05-22T09:26:29.739Z,1.50
2019-05-22T09:27:34.873Z,1.60
2019-05-22T09:28:42.894Z,1.37
2019-05-22T09:29:47.980Z,1.40
2019-05-22T09:30:55.265Z,1.55
2019-05-22T09:32:00.124Z,1.67
2019-05-22T09:33:08.803Z,1.70
2019-05-22T09:34:13.602Z,1.85
2019-05-22T09:35:19.230Z,1.60
2019-05-22T09:36:24.010Z,1.70
2019-05-22T09:37:28.151Z,1.80
2019-05-22T09:38:33.470Z,1.60
2019-05-22T09:39:37.553Z,1.77
2019-05-22T09:40:42.544Z,1.80
2019-05-22T09:41:46.700Z,1.80
2019-05-22T09:42:51.314Z,1.80
2019-05-22T09:43:55.400Z,1.80
2019-05-22T09:45:00.105Z,1.72
2019-05-22T09:46:05.400Z,1.60
2019-05-22T09:47:10.312Z,1.70
2019-05-22T09:48:14.594Z,1.52
2019-05-22T09:49:19.288Z,1.60
2019-05-22T09:50:24.268Z,1.67
2019-05-22T09:51:28.880Z,1.42
2019-05-22T09:52:33.097Z,1.50
2019-05-22T09:53:39.165Z,1.70
2019-05-22T09:54:43.283Z,1.60
2019-05-22T09:55:48.958Z,1.40
2019-05-22T09:56:53.117Z,1.45
2019-05-22T09:57:57.773Z,1.90
2019-05-22T09:59:02.078Z,1.80
2019-05-22T10:00:12.218Z,1.67
2019-05-22T10:01:16.657Z,1.60
2019-05-22T10:02:21.862Z,1.67
2019-05-22T10:03:26.840Z,1.65
2019-05-22T10:04:31.898Z,1.40
2019-05-22T10:05:36.182Z,1.50
2019-05-22T10:06:41.201Z,1.52
2019-05-22T10:07:59.239Z,1.40
2019-05-22T10:08:52.450Z,1.50
2019-05-22T10:09:56.587Z,1.40
2019-05-22T10:11:01.403Z,1.60
2019-05-22T10:12:05.749Z,1.60
2019-05-22T10:13:10.820Z,1.62
2019-05-22T10:14:14.957Z,1.65
2019-05-22T10:15:20.394Z,1.50
2019-05-22T10:16:24.558Z,2.00
2019-05-22T10:17:29.876Z,1.80
2019-05-22T10:18:34.232Z,1.75
2019-05-22T10:19:41.642Z,2.08
2019-05-22T10:20:46.248Z,1.75
2019-05-22T10:21:51.006Z,1.90
2019-05-22T10:22:55.593Z,1.75
2019-05-22T10:24:01.577Z,2.00
2019-05-22T10:25:15.586Z,1.87
2019-05-22T10:26:16.372Z,1.65
2019-05-22T10:27:21.361Z,1.65
2019-05-22T10:28:26.054Z,1.80
2019-05-22T10:29:32.313Z,1.98
2019-05-22T10:30:37.312Z,1.90
2019-05-22T10:31:41.537Z,1.80
2019-05-22T10:32:46.321Z,2.60
2019-05-22T10:33:52.087Z,2.22
2019-05-22T10:34:57.791Z,1.80
2019-05-22T10:36:02.068Z,1.70
2019-05-22T10:37:07.562Z,1.90
2019-05-22T10:38:12.269Z,1.70
2019-05-22T10:39:17.913Z,2.00
2019-05-22T10:40:23.396Z,1.90
2019-05-22T10:41:31.163Z,1.70
2019-05-22T10:42:35.289Z,2.00
2019-05-22T10:43:39.991Z,1.80
2019-05-22T10:44:44.211Z,2.20
2019-05-22T10:45:49.118Z,1.47
2019-05-22T10:46:53.607Z,1.70
2019-05-22T10:47:58.470Z,1.55
2019-05-22T10:49:02.669Z,1.60
2019-05-22T10:50:08.261Z,1.52
2019-05-22T10:51:12.695Z,1.87
2019-05-22T10:52:17.641Z,2.30
2019-05-22T10:53:32.925Z,1.90
2019-05-22T10:54:31.711Z,2.10
2019-05-22T10:55:35.842Z,1.90
2019-05-22T10:56:40.556Z,1.98
2019-05-22T10:57:44.968Z,2.00
2019-05-22T10:58:49.992Z,1.70
2019-05-22T10:59:54.136Z,2.10
2019-05-22T11:00:59.298Z,1.67
2019-05-22T11:02:03.921Z,1.98
2019-05-22T11:03:08.757Z,1.80
2019-05-22T11:04:12.904Z,2.15
2019-05-22T11:05:19.737Z,2.10
2019-05-22T11:06:23.866Z,1.80
2019-05-22T11:07:29.397Z,1.87
2019-05-22T11:08:34.470Z,1.70
2019-05-22T11:09:40.416Z,1.80
2019-05-22T11:10:45.747Z,1.85
2019-05-22T11:11:52.151Z,1.70
2019-05-22T11:12:56.730Z,2.05
2019-05-22T11:14:02.202Z,1.90
2019-05-22T11:15:07.542Z,1.87
2019-05-22T11:16:13.257Z,1.80
2019-05-22T11:17:17.449Z,1.70
2019-05-22T11:18:22.198Z,1.87
2019-05-22T11:19:28.123Z,1.80
2019-05-22T11:20:34.053Z,1.67
2019-05-22T11:21:38.433Z,1.80
2019-05-22T11:22:43.121Z,1.65
2019-05-22T11:23:52.548Z,2.05
2019-05-22T11:24:54.226Z,1.90
2019-05-22T11:25:58.313Z,1.70
2019-05-22T11:27:03.662Z,1.60
2019-05-22T11:28:08.003Z,1.70
2019-05-22T11:29:12.937Z,1.70
2019-05-22T11:30:19.230Z,1.40
2019-05-22T11:31:23.910Z,1.55
2019-05-22T11:32:28.116Z,1.40
2019-05-22T11:33:34.373Z,1.70
2019-05-22T11:34:38.821Z,1.52
2019-05-22T11:35:43.438Z,1.30
2019-05-22T11:36:47.652Z,1.77
2019-05-22T11:37:52.369Z,1.50
2019-05-22T11:38:56.535Z,1.45
2019-05-22T11:40:01.620Z,1.30
2019-05-22T11:41:06.767Z,1.22
2019-05-22T11:42:11.636Z,1.30
2019-05-22T11:43:15.947Z,1.10
2019-05-22T11:44:20.757Z,1.40
2019-05-22T11:45:25.051Z,1.22
2019-05-22T11:46:29.671Z,1.22
2019-05-22T11:47:34.448Z,1.17
2019-05-22T11:48:39.404Z,1.00
2019-05-22T11:49:45.122Z,1.17
2019-05-22T11:50:50.757Z,1.30
2019-05-22T11:51:55.269Z,1.30
2019-05-22T11:52:59.912Z,1.40
2019-05-22T11:54:09.435Z,1.25
2019-05-22T11:55:11.693Z,1.20
2019-05-22T11:56:15.991Z,1.20
2019-05-22T11:57:20.984Z,1.40
2019-05-22T11:58:25.580Z,1.17
2019-05-22T11:59:30.594Z,1.27
2019-05-22T12:00:34.884Z,1.40
2019-05-22T12:01:39.462Z,1.20
2019-05-22T12:02:45.453Z,1.10
2019-05-22T12:03:51.174Z,1.30
2019-05-22T12:04:55.365Z,1.22
2019-05-22T12:05:59.974Z,1.17
2019-05-22T12:07:05.462Z,1.30
2019-05-22T12:08:11.893Z,1.20
2019-05-22T12:09:16.889Z,1.27
2019-05-22T12:10:23.151Z,1.40
2019-05-22T12:11:28.354Z,1.52
2019-05-22T12:12:35.469Z,1.20
2019-05-22T12:13:39.504Z,1.30
2019-05-22T12:14:44.125Z,1.60
2019-05-22T12:15:48.279Z,1.10
2019-05-22T12:16:53.957Z,1.32
2019-05-22T12:17:58.826Z,2.92
2019-05-22T12:19:03.990Z,8.05
2019-05-22T12:20:10.374Z,4.30
2019-05-22T12:21:15.365Z,1.80
2019-05-22T12:22:20.131Z,1.45
2019-05-22T12:23:25.576Z,1.70
2019-05-22T12:24:36.581Z,1.70
2019-05-22T12:25:36.796Z,1.70
2019-05-22T12:26:42.360Z,1.40
2019-05-22T12:27:47.519Z,1.60
2019-05-22T12:28:51.655Z,1.37
2019-05-22T12:29:56.415Z,1.50
2019-05-22T12:31:01.022Z,1.37
2019-05-22T12:32:07.540Z,1.12
2019-05-22T12:33:14.119Z,1.40
2019-05-22T12:34:18.595Z,1.50
2019-05-22T12:35:23.968Z,1.30
2019-05-22T12:36:29.323Z,1.42
2019-05-22T12:37:35.143Z,1.40
2019-05-22T12:38:41.165Z,1.20
2019-05-22T12:39:46.516Z,1.42
2019-05-22T12:40:51.571Z,1.30
2019-05-22T12:41:56.367Z,1.30
2019-05-22T12:43:02.080Z,1.20
2019-05-22T12:44:06.378Z,1.50
2019-05-22T12:45:13.003Z,1.20
2019-05-22T12:46:18.873Z,1.30
2019-05-22T12:47:25.345Z,1.20
2019-05-22T12:48:29.869Z,1.60
2019-05-22T12:49:34.961Z,1.00
2019-05-22T12:50:39.391Z,1.07
2019-05-22T12:51:44.428Z,0.90
2019-05-22T12:52:49.757Z,0.80
2019-05-22T12:53:55.077Z,0.93
2019-05-22T12:55:00.234Z,1.00
2019-05-22T12:56:05.093Z,1.55
2019-05-22T12:57:10.396Z,1.32
2019-05-22T12:58:15.177Z,1.40
2019-05-22T12:59:20.361Z,1.05
2019-05-22T13:00:27.599Z,1.02
2019-05-22T13:01:32.570Z,1.10
2019-05-22T13:02:42.225Z,1.15
2019-05-22T13:03:44.329Z,1.10
2019-05-22T13:04:49.845Z,0.90
2019-05-22T13:05:53.980Z,1.10
2019-05-22T13:07:00.647Z,1.17
2019-05-22T13:08:05.612Z,1.27
2019-05-22T13:09:11.337Z,1.00
2019-05-22T13:10:17.637Z,1.10
2019-05-22T13:11:23.968Z,1.00
2019-05-22T13:12:28.639Z,1.00
2019-05-22T13:13:33.500Z,1.20
2019-05-22T13:14:37.993Z,1.10
2019-05-22T13:15:43.830Z,1.10
2019-05-22T13:16:49.194Z,1.20
2019-05-22T13:17:55.555Z,1.17
2019-05-22T13:18:59.756Z,1.02
2019-05-22T13:20:07.277Z,1.15
2019-05-22T13:21:12.908Z,1.30
2019-05-22T13:22:19.745Z,1.40
2019-05-22T13:23:26.901Z,1.70
2019-05-22T13:24:33.985Z,1.32
2019-05-22T13:25:39.780Z,1.20
2019-05-22T13:26:46.048Z,1.42
2019-05-22T13:27:52.292Z,1.10
2019-05-22T13:28:58.123Z,1.17
2019-05-22T13:30:05.313Z,1.15
2019-05-22T13:31:10.554Z,1.30
2019-05-22T13:32:15.976Z,1.27
2019-05-22T13:33:22.897Z,1.20
2019-05-22T13:34:28.593Z,1.10
2019-05-22T13:35:34.458Z,1.40
2019-05-22T13:36:40.360Z,1.27
2019-05-22T13:37:45.697Z,1.15
2019-05-22T13:38:49.890Z,1.35
2019-05-22T13:39:54.725Z,1.20
2019-05-22T13:40:59.033Z,1.40
2019-05-22T13:42:03.817Z,1.32
2019-05-22T13:43:08.130Z,1.30
2019-05-22T13:44:12.931Z,1.12
2019-05-22T13:45:28.672Z,1.10
2019-05-22T13:46:23.588Z,1.10
2019-05-22T13:47:27.661Z,1.00
2019-05-22T13:48:32.463Z,1.10
2019-05-22T13:49:38.307Z,1.20
2019-05-22T13:50:43.226Z,1.10
2019-05-22T13:51:47.441Z,1.25
2019-05-22T13:52:52.669Z,1.22
2019-05-22T13:53:57.669Z,1.40
2019-05-22T13:55:02.359Z,1.15
2019-05-22T13:56:07.606Z,1.20
2019-05-22T13:57:12.472Z,1.10
2019-05-22T13:58:19.455Z,1.37
2019-05-22T13:59:26.773Z,1.30
2019-05-22T14:00:31.116Z,1.30
2019-05-22T14:01:36.139Z,1.17
2019-05-22T14:02:40.272Z,1.10
2019-05-22T14:03:45.002Z,1.25
2019-05-22T14:04:49.254Z,1.10
2019-05-22T14:05:55.006Z,1.20
2019-05-22T14:06:59.488Z,1.15
2019-05-22T14:08:05.454Z,1.30
2019-05-22T14:09:20.253Z,1.20
2019-05-22T14:10:24.163Z,1.30
2019-05-22T14:11:29.220Z,1.30
2019-05-22T14:12:34.047Z,1.25
2019-05-22T14:13:41.053Z,1.20
2019-05-22T14:14:45.792Z,1.20
2019-05-22T14:15:56.136Z,1.20
2019-05-22T14:16:56.753Z,1.20
2019-05-22T14:18:01.010Z,1.35
2019-05-22T14:19:06.442Z,1.20
2019-05-22T14:20:12.774Z,2.00
2019-05-22T14:21:17.432Z,1.57
2019-05-22T14:22:21.546Z,1.20
2019-05-22T14:23:26.347Z,1.37
2019-05-22T14:24:30.665Z,1.20
2019-05-22T14:25:35.518Z,1.30
2019-05-22T14:26:39.673Z,1.10
2019-05-22T14:27:44.340Z,1.10
2019-05-22T14:28:49.005Z,1.10
2019-05-22T14:29:53.861Z,1.40
2019-05-22T14:30:58.655Z,1.90
2019-05-22T14:32:05.282Z,1.60
2019-05-22T14:33:09.925Z,1.50
2019-05-22T14:34:15.199Z,1.50
2019-05-22T14:35:20.283Z,1.40
2019-05-22T14:36:25.278Z,1.22
2019-05-22T14:37:29.880Z,1.25
2019-05-22T14:38:34.553Z,1.40
2019-05-22T14:39:39.385Z,1.50
2019-05-22T14:40:44.242Z,1.10
2019-05-22T14:41:48.463Z,1.40
2019-05-22T14:42:53.569Z,1.65
2019-05-22T14:43:57.852Z,1.52